Wetterdaten: Woche 11.10.10 - 17.10.10 (KW41)
Datum Zeit Temperatur Luftfeuchte Luftdruck Niederschlag Wind Richtung Sonnenschein Solar Taupunkt Windchill Windben
11.10.2010 00:00 10.6 C 69 % 1007.1 hPa 0.0 l/m 3.3 km/h (1 Bft) N 0.00 h 0 W/m 5.2 C 10.6 C 3.1 km/h (1 Bft)
11.10.2010 01:00 10.3 C 72 % 1007.3 hPa 0.0 l/m 2.8 km/h (1 Bft) O-SO 0.00 h 0 W/m 5.4 C 10.3 C 5.1 km/h (1 Bft)
11.10.2010 02:00 9.7 C 75 % 1007.2 hPa 0.0 l/m 1.5 km/h (1 Bft) O-SO 0.00 h 0 W/m 5.4 C 9.6 C 2.6 km/h (1 Bft)
11.10.2010 03:00 9.2 C 77 % 1007.0 hPa 0.0 l/m 3.7 km/h (1 Bft) O 0.00 h 0 W/m 5.3 C 8.9 C 6.8 km/h (2 Bft)
11.10.2010 04:00 8.7 C 79 % 1006.9 hPa 0.0 l/m 3.2 km/h (1 Bft) O-SO 0.00 h 0 W/m 5.2 C 8.5 C 6.6 km/h (2 Bft)
11.10.2010 05:00 8.2 C 81 % 1007.2 hPa 0.0 l/m 3.4 km/h (1 Bft) O-SO 0.00 h 0 W/m 5.1 C 7.9 C 7.2 km/h (2 Bft)
11.10.2010 06:00 8.0 C 81 % 1007.4 hPa 0.0 l/m 4.2 km/h (1 Bft) O 0.00 h 0 W/m 5.0 C 7.6 C 8.0 km/h (2 Bft)
11.10.2010 07:00 7.7 C 81 % 1007.9 hPa 0.0 l/m 3.7 km/h (1 Bft) O 0.12 h 10 W/m 4.7 C 7.4 C 7.8 km/h (2 Bft)
11.10.2010 08:00 7.6 C 81 % 1008.5 hPa 0.0 l/m 3.8 km/h (1 Bft) O-SO 0.00 h 51 W/m 4.6 C 7.2 C 7.6 km/h (2 Bft)
11.10.2010 09:00 8.4 C 80 % 1008.7 hPa 0.0 l/m 2.5 km/h (1 Bft) O-SO 0.00 h 98 W/m 5.1 C 8.2 C 5.5 km/h (1 Bft)
11.10.2010 10:00 9.2 C 79 % 1008.6 hPa 0.0 l/m 5.6 km/h (1 Bft) O-SO 0.45 h 246 W/m 5.7 C 8.6 C 10.5 km/h (2 Bft)
11.10.2010 11:00 11.1 C 73 % 1008.7 hPa 0.0 l/m 7.8 km/h (2 Bft) O-SO 1.00 h 452 W/m 6.5 C 11.1 C 12.8 km/h (3 Bft)
11.10.2010 12:00 12.3 C 71 % 1008.7 hPa 0.0 l/m 9.7 km/h (2 Bft) O-SO 1.00 h 515 W/m 7.1 C 12.3 C 15.3 km/h (3 Bft)
11.10.2010 13:00 13.3 C 70 % 1008.4 hPa 0.0 l/m 9.6 km/h (2 Bft) SO 1.00 h 528 W/m 7.9 C 13.3 C 15.1 km/h (3 Bft)
11.10.2010 14:00 14.2 C 69 % 1008.4 hPa 0.0 l/m 6.8 km/h (2 Bft) SO 1.00 h 489 W/m 8.5 C 14.2 C 11.6 km/h (2 Bft)
11.10.2010 15:00 15.0 C 68 % 1008.4 hPa 0.0 l/m 5.5 km/h (1 Bft) O-SO 1.00 h 402 W/m 9.0 C 15.0 C 9.3 km/h (2 Bft)
11.10.2010 16:00 15.4 C 67 % 1008.5 hPa 0.0 l/m 5.9 km/h (2 Bft) SO 1.00 h 278 W/m 9.3 C 15.4 C 9.4 km/h (2 Bft)
11.10.2010 17:00 15.1 C 68 % 1008.7 hPa 0.0 l/m 4.0 km/h (1 Bft) SO 1.00 h 134 W/m 9.2 C 15.1 C 6.5 km/h (2 Bft)
11.10.2010 18:00 13.1 C 77 % 1009.3 hPa 0.0 l/m 2.4 km/h (1 Bft) O-SO 0.03 h 22 W/m 9.1 C 13.1 C 4.1 km/h (1 Bft)
11.10.2010 19:00 10.5 C 88 % 1010.4 hPa 0.0 l/m 1.3 km/h (1 Bft) O-SO 0.00 h 0 W/m 8.6 C 10.5 C 2.2 km/h (1 Bft)
11.10.2010 20:00 9.5 C 91 % 1010.9 hPa 0.0 l/m 4.7 km/h (1 Bft) SO 0.00 h 0 W/m 8.0 C 9.2 C 5.9 km/h (2 Bft)
11.10.2010 21:00 8.8 C 92 % 1011.2 hPa 0.0 l/m 4.3 km/h (1 Bft) O-SO 0.00 h 0 W/m 7.6 C 8.5 C 5.9 km/h (2 Bft)
11.10.2010 22:00 7.7 C 94 % 1011.5 hPa 0.0 l/m 4.2 km/h (1 Bft) O-SO 0.00 h 0 W/m 6.8 C 7.4 C 5.5 km/h (1 Bft)
11.10.2010 23:00 7.2 C 95 % 1011.8 hPa 0.0 l/m 4.3 km/h (1 Bft) O-SO 0.00 h 0 W/m 6.5 C 6.9 C 5.7 km/h (1 Bft)
12.10.2010 00:00 6.6 C 95 % 1012.2 hPa 0.0 l/m 3.2 km/h (1 Bft) O-SO 0.00 h 0 W/m 5.8 C 6.4 C 4.7 km/h (1 Bft)
12.10.2010 01:00 6.1 C 96 % 1012.4 hPa 0.0 l/m 3.3 km/h (1 Bft) O-SO 0.00 h 0 W/m 5.5 C 5.9 C 4.8 km/h (1 Bft)
12.10.2010 02:00 5.3 C 96 % 1012.6 hPa 0.0 l/m 1.3 km/h (1 Bft) O-SO 0.00 h 0 W/m 4.7 C 5.2 C 2.1 km/h (1 Bft)
12.10.2010 03:00 5.3 C 97 % 1013.0 hPa 0.0 l/m 1.7 km/h (1 Bft) O-SO 0.00 h 0 W/m 4.9 C 5.3 C 2.7 km/h (1 Bft)
12.10.2010 04:00 5.3 C 98 % 1013.0 hPa 0.0 l/m 0.4 km/h (0 Bft) SO 0.00 h 0 W/m 5.0 C 5.3 C 1.3 km/h (1 Bft)
12.10.2010 05:00 5.3 C 98 % 1013.1 hPa 0.0 l/m 1.3 km/h (1 Bft) SO 0.00 h 0 W/m 5.0 C 5.3 C 2.7 km/h (1 Bft)
12.10.2010 06:00 4.9 C 98 % 1013.5 hPa 0.2 l/m 3.3 km/h (1 Bft) O 0.00 h 0 W/m 4.6 C 4.7 C 4.9 km/h (1 Bft)
12.10.2010 07:00 4.6 C 98 % 1014.1 hPa 0.0 l/m 1.5 km/h (1 Bft) O 0.00 h 7 W/m 4.4 C 4.6 C 3.0 km/h (1 Bft)
12.10.2010 08:00 4.2 C 99 % 1014.5 hPa 0.0 l/m 2.4 km/h (1 Bft) O-SO 0.00 h 36 W/m 4.0 C 4.1 C 4.2 km/h (1 Bft)
12.10.2010 09:00 4.9 C 99 % 1014.7 hPa 0.0 l/m 1.8 km/h (1 Bft) O-SO 0.02 h 120 W/m 4.7 C 4.9 C 3.4 km/h (1 Bft)
12.10.2010 10:00 7.0 C 99 % 1014.6 hPa 0.0 l/m 0.5 km/h (0 Bft) O-SO 0.82 h 297 W/m 6.9 C 7.0 C 1.8 km/h (1 Bft)
12.10.2010 11:00 10.6 C 85 % 1013.9 hPa 0.0 l/m 3.2 km/h (1 Bft) O-SO 1.00 h 429 W/m 8.0 C 10.6 C 6.3 km/h (2 Bft)
12.10.2010 12:00 13.1 C 73 % 1013.2 hPa 0.0 l/m 4.0 km/h (1 Bft) SO 1.00 h 494 W/m 8.3 C 13.1 C 7.8 km/h (2 Bft)
12.10.2010 13:00 14.4 C 70 % 1012.3 hPa 0.0 l/m 4.3 km/h (1 Bft) O-SO 1.00 h 517 W/m 8.9 C 14.4 C 7.4 km/h (2 Bft)
12.10.2010 14:00 15.6 C 67 % 1011.4 hPa 0.0 l/m 5.3 km/h (1 Bft) O-SO 1.00 h 483 W/m 9.5 C 15.6 C 9.5 km/h (2 Bft)
12.10.2010 15:00 16.1 C 66 % 1010.7 hPa 0.0 l/m 5.3 km/h (1 Bft) SO 1.00 h 392 W/m 9.8 C 16.1 C 9.1 km/h (2 Bft)
12.10.2010 16:00 16.2 C 66 % 1010.3 hPa 0.0 l/m 4.0 km/h (1 Bft) SO 1.00 h 265 W/m 9.8 C 16.2 C 7.3 km/h (2 Bft)
12.10.2010 17:00 15.6 C 68 % 1010.5 hPa 0.0 l/m 2.5 km/h (1 Bft) SO 0.93 h 125 W/m 9.8 C 15.6 C 4.8 km/h (1 Bft)
12.10.2010 18:00 13.6 C 77 % 1010.9 hPa 0.0 l/m 1.4 km/h (1 Bft) SO 0.03 h 21 W/m 9.6 C 13.6 C 2.4 km/h (1 Bft)
12.10.2010 19:00 11.1 C 87 % 1011.6 hPa 0.0 l/m 1.4 km/h (1 Bft) O-SO 0.00 h 0 W/m 9.0 C 11.1 C 2.4 km/h (1 Bft)
12.10.2010 20:00 9.3 C 91 % 1012.3 hPa 0.0 l/m 0.8 km/h (0 Bft) O-SO 0.00 h 0 W/m 8.0 C 9.3 C 2.1 km/h (1 Bft)
12.10.2010 21:00 8.3 C 92 % 1012.4 hPa 0.0 l/m 2.1 km/h (1 Bft) O-SO 0.00 h 0 W/m 7.0 C 8.1 C 3.2 km/h (1 Bft)
12.10.2010 22:00 7.6 C 92 % 1012.2 hPa 0.0 l/m 1.8 km/h (1 Bft) O-SO 0.00 h 0 W/m 6.4 C 7.6 C 3.0 km/h (1 Bft)
12.10.2010 23:00 7.0 C 92 % 1011.7 hPa 0.0 l/m 1.4 km/h (1 Bft) O 0.00 h 0 W/m 5.8 C 7.0 C 2.3 km/h (1 Bft)
13.10.2010 00:00 6.5 C 93 % 1011.5 hPa 0.0 l/m 1.6 km/h (1 Bft) O 0.00 h 0 W/m 5.4 C 6.3 C 2.4 km/h (1 Bft)
13.10.2010 01:00 5.7 C 94 % 1011.1 hPa 0.0 l/m 1.8 km/h (1 Bft) O-SO 0.00 h 0 W/m 4.9 C 5.7 C 3.1 km/h (1 Bft)
13.10.2010 02:00 5.2 C 95 % 1011.3 hPa 0.0 l/m 1.0 km/h (0 Bft) O 0.00 h 0 W/m 4.4 C 5.1 C 1.8 km/h (1 Bft)
13.10.2010 03:00 4.8 C 96 % 1011.4 hPa 0.0 l/m 1.5 km/h (1 Bft) O 0.00 h 0 W/m 4.2 C 4.7 C 2.5 km/h (1 Bft)
13.10.2010 04:00 5.4 C 97 % 1011.2 hPa 0.0 l/m 1.1 km/h (1 Bft) N-NW 0.00 h 0 W/m 4.9 C 5.3 C 2.7 km/h (1 Bft)
13.10.2010 05:00 5.3 C 98 % 1011.2 hPa 0.0 l/m 0.7 km/h (0 Bft) N-NO 0.00 h 0 W/m 5.0 C 5.3 C 2.0 km/h (1 Bft)
13.10.2010 06:00 5.3 C 98 % 1011.4 hPa 0.0 l/m 1.0 km/h (0 Bft) O 0.00 h 0 W/m 5.0 C 5.3 C 2.8 km/h (1 Bft)
13.10.2010 07:00 4.8 C 98 % 1012.0 hPa 0.0 l/m 0.7 km/h (0 Bft) O 0.00 h 6 W/m 4.6 C 4.8 C 1.9 km/h (1 Bft)
13.10.2010 08:00 5.1 C 98 % 1012.3 hPa 0.0 l/m 0.9 km/h (0 Bft) O 0.00 h 26 W/m 4.9 C 5.1 C 2.2 km/h (1 Bft)
13.10.2010 09:00 5.6 C 99 % 1012.7 hPa 0.0 l/m 1.1 km/h (1 Bft) W 0.00 h 49 W/m 5.5 C 5.6 C 2.6 km/h (1 Bft)
13.10.2010 10:00 6.7 C 99 % 1012.9 hPa 0.0 l/m 1.8 km/h (1 Bft) NW 0.00 h 107 W/m 6.6 C 6.7 C 3.9 km/h (1 Bft)
13.10.2010 11:00 9.0 C 93 % 1012.9 hPa 0.0 l/m 1.9 km/h (1 Bft) N-NW 0.10 h 199 W/m 7.9 C 8.8 C 4.0 km/h (1 Bft)
13.10.2010 12:00 9.6 C 85 % 1012.8 hPa 0.0 l/m 10.3 km/h (2 Bft) O-SO 0.00 h 144 W/m 7.3 C 8.2 C 15.1 km/h (3 Bft)
13.10.2010 13:00 9.8 C 84 % 1012.6 hPa 0.0 l/m 9.2 km/h (2 Bft) O-SO 0.00 h 168 W/m 7.3 C 8.6 C 14.5 km/h (3 Bft)
13.10.2010 14:00 10.3 C 83 % 1012.3 hPa 0.0 l/m 9.3 km/h (2 Bft) O-SO 0.00 h 207 W/m 7.6 C 10.2 C 15.1 km/h (3 Bft)
13.10.2010 15:00 10.9 C 82 % 1011.9 hPa 0.0 l/m 5.4 km/h (1 Bft) SO 0.42 h 239 W/m 7.9 C 10.9 C 9.1 km/h (2 Bft)
13.10.2010 16:00 10.9 C 81 % 1011.8 hPa 0.0 l/m 6.6 km/h (2 Bft) SO 0.37 h 161 W/m 7.8 C 10.9 C 10.4 km/h (2 Bft)
13.10.2010 17:00 10.4 C 84 % 1012.2 hPa 0.0 l/m 2.1 km/h (1 Bft) SO 0.00 h 59 W/m 7.8 C 10.4 C 4.1 km/h (1 Bft)
13.10.2010 18:00 10.1 C 86 % 1012.8 hPa 0.0 l/m 0.1 km/h (0 Bft) SO 0.00 h 13 W/m 7.8 C 10.1 C 0.5 km/h (0 Bft)
13.10.2010 19:00 9.9 C 86 % 1013.5 hPa 0.0 l/m 0.0 km/h (0 Bft) N 0.00 h 0 W/m 7.7 C 9.9 C 0.0 km/h (0 Bft)
13.10.2010 20:00 9.8 C 87 % 1013.9 hPa 0.0 l/m 0.0 km/h (0 Bft) N 0.00 h 0 W/m 7.7 C 9.8 C 0.0 km/h (0 Bft)
13.10.2010 21:00 9.7 C 89 % 1013.9 hPa 0.0 l/m 0.0 km/h (0 Bft) N 0.00 h 0 W/m 8.0 C 9.7 C 0.0 km/h (0 Bft)
13.10.2010 22:00 9.6 C 89 % 1013.7 hPa 0.0 l/m 0.0 km/h (0 Bft) N 0.00 h 0 W/m 7.9 C 9.6 C 0.0 km/h (0 Bft)
13.10.2010 23:00 9.4 C 90 % 1013.2 hPa 0.0 l/m 0.0 km/h (0 Bft) N 0.00 h 0 W/m 7.8 C 9.4 C 0.0 km/h (0 Bft)
14.10.2010 00:00 9.4 C 88 % 1013.1 hPa 0.0 l/m 0.0 km/h (0 Bft) N 0.00 h 0 W/m 7.4 C 9.4 C 0.0 km/h (0 Bft)
14.10.2010 01:00 9.3 C 87 % 1013.1 hPa 0.0 l/m 0.0 km/h (0 Bft) N 0.00 h 0 W/m 7.2 C 9.3 C 0.0 km/h (0 Bft)
14.10.2010 02:00 9.2 C 88 % 1013.1 hPa 0.0 l/m 0.0 km/h (0 Bft) N 0.00 h 0 W/m 7.3 C 9.2 C 0.0 km/h (0 Bft)
14.10.2010 03:00 8.9 C 91 % 1012.8 hPa 0.0 l/m 0.0 km/h (0 Bft) N 0.00 h 0 W/m 7.5 C 8.9 C 0.0 km/h (0 Bft)
14.10.2010 04:00 9.0 C 91 % 1012.7 hPa 0.0 l/m 0.0 km/h (0 Bft) N 0.00 h 0 W/m 7.6 C 9.0 C 0.0 km/h (0 Bft)
14.10.2010 05:00 9.5 C 83 % 1012.7 hPa 0.0 l/m 1.1 km/h (1 Bft) NO 0.00 h 0 W/m 6.8 C 9.4 C 2.8 km/h (1 Bft)
14.10.2010 06:00 9.6 C 80 % 1012.9 hPa 0.0 l/m 0.8 km/h (0 Bft) O-SO 0.00 h 0 W/m 6.2 C 9.5 C 2.2 km/h (1 Bft)
14.10.2010 07:00 9.2 C 85 % 1013.0 hPa 0.0 l/m 0.6 km/h (0 Bft) N-NW 0.00 h 5 W/m 6.9 C 9.2 C 1.6 km/h (1 Bft)
14.10.2010 08:00 9.3 C 84 % 1013.3 hPa 0.0 l/m 0.1 km/h (0 Bft) N-NW 0.00 h 27 W/m 6.8 C 9.3 C 0.5 km/h (0 Bft)
14.10.2010 09:00 10.0 C 83 % 1013.6 hPa 0.0 l/m 0.2 km/h (0 Bft) NO 0.02 h 104 W/m 7.3 C 10.0 C 1.3 km/h (1 Bft)
14.10.2010 10:00 11.2 C 77 % 1013.6 hPa 0.0 l/m 2.5 km/h (1 Bft) SO 0.63 h 281 W/m 7.3 C 11.2 C 4.8 km/h (1 Bft)
14.10.2010 11:00 12.1 C 72 % 1013.5 hPa 0.0 l/m 4.0 km/h (1 Bft) SO 0.45 h 282 W/m 7.1 C 12.1 C 7.5 km/h (2 Bft)
14.10.2010 12:00 12.0 C 70 % 1013.8 hPa 0.0 l/m 2.4 km/h (1 Bft) N-NO 0.00 h 208 W/m 6.7 C 12.0 C 5.5 km/h (1 Bft)
14.10.2010 13:00 12.6 C 69 % 1013.9 hPa 0.0 l/m 3.1 km/h (1 Bft) N-NO 0.00 h 221 W/m 7.0 C 12.6 C 6.4 km/h (2 Bft)
14.10.2010 14:00 13.0 C 68 % 1013.4 hPa 0.0 l/m 2.6 km/h (1 Bft) N 0.23 h 261 W/m 7.2 C 13.0 C 5.2 km/h (1 Bft)
14.10.2010 15:00 13.1 C 67 % 1013.3 hPa 0.0 l/m 5.8 km/h (2 Bft) SO 0.70 h 309 W/m 7.1 C 13.1 C 9.6 km/h (2 Bft)
14.10.2010 16:00 13.0 C 67 % 1013.4 hPa 0.0 l/m 6.3 km/h (2 Bft) SO 1.00 h 240 W/m 7.1 C 13.0 C 9.8 km/h (2 Bft)
14.10.2010 17:00 12.1 C 70 % 1013.4 hPa 0.0 l/m 4.3 km/h (1 Bft) O-SO 0.50 h 99 W/m 6.7 C 12.1 C 6.4 km/h (2 Bft)
14.10.2010 18:00 10.7 C 77 % 1013.8 hPa 0.0 l/m 0.9 km/h (0 Bft) O-SO 0.08 h 19 W/m 6.8 C 10.7 C 1.8 km/h (1 Bft)
14.10.2010 19:00 9.8 C 85 % 1014.3 hPa 0.0 l/m 0.9 km/h (0 Bft) N-NW 0.00 h 0 W/m 7.5 C 9.8 C 2.3 km/h (1 Bft)
14.10.2010 20:00 9.4 C 90 % 1014.4 hPa 0.0 l/m 0.5 km/h (0 Bft) N 0.00 h 0 W/m 7.8 C 9.4 C 1.9 km/h (1 Bft)
14.10.2010 21:00 9.0 C 91 % 1014.6 hPa 0.0 l/m 0.1 km/h (0 Bft) N 0.00 h 0 W/m 7.6 C 9.0 C 0.5 km/h (0 Bft)
14.10.2010 22:00 8.8 C 92 % 1014.5 hPa 0.0 l/m 0.1 km/h (0 Bft) N 0.00 h 0 W/m 7.6 C 8.8 C 0.6 km/h (0 Bft)
14.10.2010 23:00 8.4 C 94 % 1014.3 hPa 0.0 l/m 0.3 km/h (0 Bft) N 0.00 h 0 W/m 7.5 C 8.4 C 1.4 km/h (1 Bft)
15.10.2010 00:00 7.9 C 95 % 1014.2 hPa 0.0 l/m 0.2 km/h (0 Bft) N 0.00 h 0 W/m 7.2 C 7.9 C 0.7 km/h (0 Bft)
15.10.2010 01:00 7.7 C 96 % 1014.2 hPa 0.0 l/m 0.0 km/h (0 Bft) N 0.00 h 0 W/m 7.1 C 7.7 C 0.4 km/h (0 Bft)
15.10.2010 02:00 7.4 C 96 % 1014.1 hPa 0.0 l/m 0.4 km/h (0 Bft) N 0.00 h 0 W/m 6.9 C 7.4 C 1.2 km/h (1 Bft)
15.10.2010 03:00 7.3 C 96 % 1014.0 hPa 0.0 l/m 1.3 km/h (1 Bft) N 0.00 h 0 W/m 6.8 C 7.3 C 3.2 km/h (1 Bft)
15.10.2010 04:00 7.2 C 97 % 1013.6 hPa 0.0 l/m 1.5 km/h (1 Bft) N 0.00 h 0 W/m 6.8 C 7.2 C 3.2 km/h (1 Bft)
15.10.2010 05:00 7.3 C 96 % 1013.6 hPa 0.0 l/m 1.7 km/h (1 Bft) N 0.00 h 0 W/m 6.7 C 7.3 C 3.7 km/h (1 Bft)
15.10.2010 06:00 7.3 C 96 % 1013.6 hPa 0.0 l/m 0.7 km/h (0 Bft) N-NW 0.00 h 0 W/m 6.7 C 7.3 C 2.2 km/h (1 Bft)
15.10.2010 07:00 7.3 C 95 % 1013.6 hPa 0.0 l/m 1.4 km/h (1 Bft) N-NW 0.00 h 5 W/m 6.6 C 7.3 C 3.2 km/h (1 Bft)
15.10.2010 08:00 7.6 C 92 % 1013.8 hPa 0.0 l/m 0.1 km/h (0 Bft) O 0.00 h 24 W/m 6.4 C 7.6 C 0.5 km/h (0 Bft)
15.10.2010 09:00 8.1 C 88 % 1014.0 hPa 0.0 l/m 0.2 km/h (0 Bft) O 0.00 h 62 W/m 6.2 C 8.1 C 1.0 km/h (0 Bft)
15.10.2010 10:00 8.6 C 86 % 1014.2 hPa 0.0 l/m 2.4 km/h (1 Bft) O-SO 0.00 h 138 W/m 6.3 C 8.5 C 4.2 km/h (1 Bft)
15.10.2010 11:00 9.5 C 81 % 1014.0 hPa 0.0 l/m 3.2 km/h (1 Bft) O-SO 0.17 h 204 W/m 6.4 C 9.4 C 5.3 km/h (1 Bft)
15.10.2010 12:00 9.6 C 77 % 1013.9 hPa 0.0 l/m 3.9 km/h (1 Bft) O-SO 0.00 h 133 W/m 5.8 C 9.4 C 6.6 km/h (2 Bft)
15.10.2010 13:00 9.8 C 75 % 1013.6 hPa 0.0 l/m 2.8 km/h (1 Bft) O-SO 0.00 h 128 W/m 5.6 C 9.7 C 4.8 km/h (1 Bft)
15.10.2010 14:00 10.2 C 74 % 1013.1 hPa 0.0 l/m 1.6 km/h (1 Bft) O-SO 0.00 h 152 W/m 5.7 C 10.2 C 3.9 km/h (1 Bft)
15.10.2010 15:00 10.2 C 70 % 1013.0 hPa 0.0 l/m 2.0 km/h (1 Bft) O-NO 0.00 h 129 W/m 5.0 C 10.2 C 4.9 km/h (1 Bft)
15.10.2010 16:00 9.9 C 73 % 1012.9 hPa 0.0 l/m 1.2 km/h (1 Bft) O-SO 0.00 h 61 W/m 5.3 C 9.8 C 2.8 km/h (1 Bft)
15.10.2010 17:00 9.4 C 76 % 1012.7 hPa 0.0 l/m 0.6 km/h (0 Bft) SO 0.00 h 26 W/m 5.4 C 9.4 C 1.8 km/h (1 Bft)
15.10.2010 18:00 8.9 C 80 % 1012.9 hPa 0.0 l/m 0.0 km/h (0 Bft) N 0.00 h 8 W/m 5.7 C 8.9 C 0.1 km/h (0 Bft)
15.10.2010 19:00 8.8 C 81 % 1013.0 hPa 0.0 l/m 0.0 km/h (0 Bft) N 0.00 h 0 W/m 5.7 C 8.8 C 0.1 km/h (0 Bft)
15.10.2010 20:00 8.5 C 85 % 1012.9 hPa 0.0 l/m 0.1 km/h (0 Bft) SO 0.00 h 0 W/m 6.1 C 8.5 C 0.3 km/h (0 Bft)
15.10.2010 21:00 8.2 C 87 % 1012.7 hPa 0.0 l/m 0.7 km/h (0 Bft) N 0.00 h 0 W/m 6.2 C 8.2 C 1.8 km/h (1 Bft)
15.10.2010 22:00 8.2 C 88 % 1012.5 hPa 0.0 l/m 0.2 km/h (0 Bft) N-NW 0.00 h 0 W/m 6.3 C 8.2 C 0.7 km/h (0 Bft)
15.10.2010 23:00 8.0 C 90 % 1012.3 hPa 0.0 l/m 0.2 km/h (0 Bft) N-NW 0.00 h 0 W/m 6.4 C 8.0 C 1.0 km/h (0 Bft)
16.10.2010 00:00 7.9 C 90 % 1011.8 hPa 0.0 l/m 0.0 km/h (0 Bft) N-NW 0.00 h 0 W/m 6.4 C 7.9 C 0.6 km/h (0 Bft)
16.10.2010 01:00 7.8 C 90 % 1011.4 hPa 0.0 l/m 0.7 km/h (0 Bft) W 0.00 h 0 W/m 6.3 C 7.7 C 1.4 km/h (1 Bft)
16.10.2010 02:00 7.8 C 88 % 1011.1 hPa 0.0 l/m 0.3 km/h (0 Bft) NW 0.00 h 0 W/m 6.0 C 7.8 C 0.9 km/h (0 Bft)
16.10.2010 03:00 7.8 C 87 % 1010.5 hPa 0.0 l/m 0.6 km/h (0 Bft) S-SO 0.00 h 0 W/m 5.8 C 7.8 C 1.5 km/h (1 Bft)
16.10.2010 04:00 7.7 C 88 % 1010.1 hPa 0.0 l/m 0.9 km/h (0 Bft) S-SO 0.00 h 0 W/m 5.8 C 7.7 C 2.5 km/h (1 Bft)
16.10.2010 05:00 7.5 C 88 % 1009.9 hPa 0.0 l/m 1.5 km/h (1 Bft) S-SO 0.00 h 0 W/m 5.7 C 7.4 C 3.2 km/h (1 Bft)
16.10.2010 06:00 7.4 C 87 % 1009.8 hPa 0.0 l/m 1.6 km/h (1 Bft) W 0.00 h 0 W/m 5.4 C 7.3 C 3.9 km/h (1 Bft)
16.10.2010 07:00 7.2 C 89 % 1009.9 hPa 0.2 l/m 4.6 km/h (1 Bft) W 0.00 h 0 W/m 5.5 C 6.7 C 7.5 km/h (2 Bft)
16.10.2010 08:00 6.6 C 94 % 1010.3 hPa 0.4 l/m 1.9 km/h (1 Bft) W 0.00 h 18 W/m 5.6 C 6.3 C 3.3 km/h (1 Bft)
16.10.2010 09:00 6.5 C 96 % 1010.5 hPa 0.4 l/m 0.8 km/h (0 Bft) W 0.00 h 49 W/m 5.9 C 6.5 C 2.1 km/h (1 Bft)
16.10.2010 10:00 6.9 C 96 % 1010.7 hPa 0.2 l/m 0.7 km/h (0 Bft) S 0.00 h 67 W/m 6.3 C 6.9 C 2.6 km/h (1 Bft)
16.10.2010 11:00 7.4 C 96 % 1010.7 hPa 0.4 l/m 1.6 km/h (1 Bft) W-SW 0.00 h 125 W/m 6.8 C 7.3 C 3.9 km/h (1 Bft)
16.10.2010 12:00 7.6 C 95 % 1010.8 hPa 0.2 l/m 3.4 km/h (1 Bft) W-SW 0.00 h 147 W/m 6.9 C 7.3 C 6.3 km/h (2 Bft)
16.10.2010 13:00 7.9 C 95 % 1010.4 hPa 0.4 l/m 1.1 km/h (0 Bft) W 0.00 h 108 W/m 7.2 C 7.9 C 3.4 km/h (1 Bft)
16.10.2010 14:00 7.9 C 95 % 1010.2 hPa 0.0 l/m 1.6 km/h (1 Bft) S 0.00 h 84 W/m 7.2 C 7.9 C 4.5 km/h (1 Bft)
16.10.2010 15:00 7.9 C 96 % 1010.1 hPa 0.8 l/m 0.8 km/h (0 Bft) S-SW 0.00 h 62 W/m 7.3 C 7.9 C 2.6 km/h (1 Bft)
16.10.2010 16:00 8.1 C 97 % 1010.2 hPa 0.8 l/m 1.0 km/h (0 Bft) S 0.00 h 75 W/m 7.6 C 8.1 C 3.1 km/h (1 Bft)
16.10.2010 17:00 8.1 C 96 % 1010.3 hPa 0.4 l/m 0.7 km/h (0 Bft) S-SO 0.00 h 51 W/m 7.5 C 8.1 C 2.2 km/h (1 Bft)
16.10.2010 18:00 8.0 C 96 % 1010.8 hPa 0.0 l/m 1.0 km/h (0 Bft) S-SO 0.00 h 15 W/m 7.3 C 8.0 C 2.7 km/h (1 Bft)
16.10.2010 19:00 7.8 C 96 % 1011.1 hPa 0.0 l/m 1.4 km/h (1 Bft) SO 0.00 h 0 W/m 7.2 C 7.8 C 3.2 km/h (1 Bft)
16.10.2010 20:00 7.6 C 96 % 1011.8 hPa 0.0 l/m 0.5 km/h (0 Bft) SO 0.00 h 0 W/m 7.0 C 7.6 C 1.2 km/h (1 Bft)
16.10.2010 21:00 7.7 C 96 % 1012.0 hPa 0.0 l/m 1.3 km/h (1 Bft) S-SO 0.00 h 0 W/m 7.1 C 7.7 C 2.7 km/h (1 Bft)
16.10.2010 22:00 7.7 C 97 % 1012.0 hPa 0.0 l/m 0.0 km/h (0 Bft) S 0.00 h 0 W/m 7.1 C 7.7 C 0.3 km/h (0 Bft)
16.10.2010 23:00 7.6 C 97 % 1012.1 hPa 0.0 l/m 0.0 km/h (0 Bft) S 0.00 h 0 W/m 7.2 C 7.6 C 0.3 km/h (0 Bft)
17.10.2010 00:00 7.5 C 96 % 1012.3 hPa 0.0 l/m 0.2 km/h (0 Bft) S 0.00 h 0 W/m 7.0 C 7.5 C 0.8 km/h (0 Bft)
17.10.2010 01:00 7.4 C 96 % 1012.4 hPa 0.0 l/m 0.0 km/h (0 Bft) N 0.00 h 0 W/m 6.8 C 7.4 C 0.0 km/h (0 Bft)
17.10.2010 02:00 7.2 C 97 % 1012.5 hPa 0.0 l/m 0.0 km/h (0 Bft) N 0.00 h 0 W/m 6.7 C 7.2 C 0.0 km/h (0 Bft)
17.10.2010 03:00 6.8 C 98 % 1012.5 hPa 0.0 l/m 0.2 km/h (0 Bft) S 0.00 h 0 W/m 6.4 C 6.8 C 0.3 km/h (0 Bft)
17.10.2010 04:00 7.0 C 98 % 1012.4 hPa 0.0 l/m 0.0 km/h (0 Bft) N 0.00 h 0 W/m 6.7 C 7.0 C 0.0 km/h (0 Bft)
17.10.2010 05:00 6.9 C 98 % 1012.5 hPa 0.0 l/m 0.2 km/h (0 Bft) S 0.00 h 0 W/m 6.6 C 6.9 C 0.4 km/h (0 Bft)
17.10.2010 06:00 6.8 C 98 % 1012.8 hPa 0.0 l/m 0.7 km/h (0 Bft) W-SW 0.00 h 0 W/m 6.6 C 6.8 C 1.9 km/h (1 Bft)
17.10.2010 07:00 6.9 C 98 % 1013.0 hPa 0.0 l/m 0.1 km/h (0 Bft) NW 0.00 h 0 W/m 6.6 C 6.9 C 0.8 km/h (0 Bft)
17.10.2010 08:00 7.2 C 98 % 1013.3 hPa 0.8 l/m 0.1 km/h (0 Bft) NW 0.00 h 15 W/m 6.9 C 7.2 C 1.1 km/h (0 Bft)
17.10.2010 09:00 7.5 C 96 % 1013.8 hPa 0.6 l/m 2.3 km/h (1 Bft) NO 0.00 h 58 W/m 6.9 C 7.4 C 5.0 km/h (1 Bft)
17.10.2010 10:00 8.2 C 96 % 1014.0 hPa 0.0 l/m 1.0 km/h (0 Bft) NW 0.00 h 121 W/m 7.6 C 8.1 C 2.6 km/h (1 Bft)
17.10.2010 11:00 8.5 C 93 % 1014.4 hPa 0.0 l/m 1.9 km/h (1 Bft) NO 0.00 h 121 W/m 7.4 C 8.4 C 4.7 km/h (1 Bft)
17.10.2010 12:00 8.5 C 90 % 1014.7 hPa 0.0 l/m 1.8 km/h (1 Bft) N 0.00 h 111 W/m 6.9 C 8.5 C 4.4 km/h (1 Bft)
17.10.2010 13:00 8.7 C 89 % 1014.9 hPa 0.0 l/m 1.4 km/h (1 Bft) N-NO 0.00 h 122 W/m 7.0 C 8.7 C 3.4 km/h (1 Bft)
17.10.2010 14:00 9.4 C 88 % 1014.4 hPa 0.0 l/m 2.8 km/h (1 Bft) N-NO 0.00 h 202 W/m 7.5 C 9.3 C 5.4 km/h (1 Bft)
17.10.2010 15:00 8.7 C 92 % 1014.6 hPa 0.2 l/m 4.2 km/h (1 Bft) N-NW 0.00 h 102 W/m 7.4 C 8.4 C 7.3 km/h (2 Bft)
17.10.2010 16:00 8.6 C 90 % 1015.0 hPa 0.0 l/m 5.2 km/h (1 Bft) N 0.00 h 94 W/m 7.0 C 8.1 C 9.0 km/h (2 Bft)
17.10.2010 17:00 8.4 C 89 % 1015.4 hPa 0.0 l/m 2.4 km/h (1 Bft) N-NO 0.00 h 57 W/m 6.8 C 8.2 C 5.0 km/h (1 Bft)
17.10.2010 18:00 8.2 C 90 % 1016.0 hPa 0.4 l/m 0.4 km/h (0 Bft) O-NO 0.00 h 12 W/m 6.7 C 8.2 C 1.6 km/h (1 Bft)
17.10.2010 19:00 7.8 C 93 % 1016.6 hPa 0.2 l/m 0.1 km/h (0 Bft) O-NO 0.00 h 0 W/m 6.7 C 7.8 C 0.6 km/h (0 Bft)
17.10.2010 20:00 7.7 C 94 % 1016.9 hPa 0.2 l/m 0.4 km/h (0 Bft) O-NO 0.00 h 0 W/m 6.8 C 7.7 C 1.2 km/h (1 Bft)
17.10.2010 21:00 7.5 C 94 % 1017.2 hPa 0.0 l/m 0.0 km/h (0 Bft) N 0.00 h 0 W/m 6.6 C 7.5 C 0.3 km/h (0 Bft)
17.10.2010 22:00 7.4 C 94 % 1017.4 hPa 0.0 l/m 0.2 km/h (0 Bft) N 0.00 h 0 W/m 6.5 C 7.4 C 0.7 km/h (0 Bft)
17.10.2010 23:00 7.4 C 92 % 1017.8 hPa 0.0 l/m 0.6 km/h (0 Bft) N-NO 0.00 h 0 W/m 6.3 C 7.4 C 2.2 km/h (1 Bft)
Min-Datum _ 12.10.10 12.10.10 11.10.10 - 11.10.10 - - - 13.10.10 12.10.10 11.10.10
_ Min-Zeit 08:19 15:48 00:15 - 00:12 - - - 03:11 08:34 00:00
Minimum _ 4.0 C 63 % 1006.8 hPa - 0.0 km/h (0 Bft) - - - 3.8 C 3.0 C 0.0 km/h (0 Bft)
Max-Datum _ 12.10.10 12.10.10 17.10.10 16.10.10 13.10.10 - 11.10.10 14.10.10 12.10.10 12.10.10 11.10.10
_ Max-Zeit 15:40 02:39 23:15 15:08 12:53 - 07:50 11:23 16:13 15:39 13:53
Maximum _ 16.5 C 100 % 1017.8 hPa 0.8 l/m 19.6 km/h
O-SO (3 Bft)
- 0.02 h 606 W/m 10.8 C 16.5 C 26.1 km/h
SO (4 Bft)
Durchschnitt _ 8.8 C 87 % 1012.3 hPa #6.8 l/m 2.0 km/h (1 Bft) O-SO #20:04 h 155 W/m 6.7 C 8.7 C 3.8 km/h (1 Bft)
© Kaiko 2010